This is the latest recevied weather packets stored in our database for station/object KG4QXL-2. If no packets are shown the sender has not sent any weather packets the latest 10 day(s).
| Time | Temp. | Humidity | Pressure | Rain* | Wind** | Luminosity | Snow |
|---|---|---|---|---|---|---|---|
| 1777713917 | 10.56° C | 70% | 1007.7 hPa | 0 mm | - | 0 W/m² | - |
| 1777706717 | 10° C | 92% | 1007.1 hPa | 0 mm | - | 0 W/m² | - |
| 1777706117 | 10° C | 89% | 1007.1 hPa | 0 mm | - | 0 W/m² | - |
| 1777704917 | 10° C | 94% | 1007.2 hPa | 0 mm | - | 0 W/m² | - |
| 1777700717 | 10.56° C | 92% | 1007.3 hPa | 0 mm | - | 0 W/m² | - |
| 1777698317 | 11.67° C | 95% | 1007.4 hPa | 0 mm | - | 0 W/m² | - |
| 1777691717 | 13.33° C | 75% | 1006.4 hPa | 0 mm | - | 0 W/m² | - |
| 1777683937 | 15° C | 65% | 1004.9 hPa | 0 mm | - | 0 W/m² | - |
| 1777679117 | 16.67° C | 50% | 1004.4 hPa | 0 mm | - | 0 W/m² | - |
| 1777671317 | 17.78° C | 41% | 1004.6 hPa | 0 mm | - | 3 W/m² | - |
| 1777667717 | 17.78° C | 43% | 1005.1 hPa | 0 mm | - | 5 W/m² | - |
| 1777661718 | 17.22° C | 44% | 1006.8 hPa | 0 mm | - | 12 W/m² | - |
| 1777656917 | 16.11° C | 47% | 1007.8 hPa | 0 mm | - | 40 W/m² | - |
| 1777656317 | 16.11° C | 46% | 1007.9 hPa | 0 mm | - | 81 W/m² | - |
| 1777647317 | 13.33° C | 52% | 1009.6 hPa | 0 mm | - | 9 W/m² | - |
| 1777644938 | 12.78° C | 59% | 1009.8 hPa | 0 mm | - | 7 W/m² | - |
| 1777644317 | 12.22° C | 61% | 1009.9 hPa | 0 mm | - | 9 W/m² | - |
| 1777640717 | 10.56° C | 71% | 1010 hPa | 0 mm | - | 17 W/m² | - |
| 1777635317 | 6.11° C | 95% | 1010 hPa | 0 mm | - | 2 W/m² | - |
| 1777631716 | 5.56° C | 94% | 1009.6 hPa | 0 mm | - | 0 W/m² | - |
| 1777630517 | 5.56° C | 94% | 1009.6 hPa | 0 mm | - | 0 W/m² | - |
| 1777625117 | 5° C | 93% | 1009.5 hPa | 0 mm | - | 0 W/m² | - |
| 1777623917 | 5.56° C | 93% | 1009.4 hPa | 0 mm | - | 0 W/m² | - |
| 1777622718 | 5.56° C | 93% | 1009.3 hPa | 0 mm | - | 0 W/m² | - |
| 1777619759 | 6.11° C | 91% | 1008.9 hPa | 0 mm | - | 0 W/m² | - |
* Rain latest hour (hover to see other rain measurements)
** Current wind speed in m/s (hover to see current wind gust speed)